createdAt,value
2017-09-18T00:01:51.159Z,4.23
2017-09-18T00:04:18.891Z,5.13
2017-09-18T00:06:45.801Z,4.73
2017-09-18T00:09:12.671Z,4.43
2017-09-18T00:11:39.696Z,4.27
2017-09-18T00:14:06.548Z,6.83
2017-09-18T00:16:33.429Z,4.53
2017-09-18T00:19:00.360Z,5.27
2017-09-18T00:21:27.259Z,5.67
2017-09-18T00:23:54.132Z,4.03
2017-09-18T00:26:21.052Z,4.70
2017-09-18T00:28:48.042Z,6.03
2017-09-18T00:31:14.907Z,4.40
2017-09-18T00:33:41.863Z,5.43
2017-09-18T00:36:09.516Z,4.60
2017-09-18T00:38:36.477Z,4.27
2017-09-18T00:41:03.446Z,4.87
2017-09-18T00:43:30.319Z,4.50
2017-09-18T00:45:57.307Z,4.23
2017-09-18T00:48:24.204Z,3.87
2017-09-18T00:50:51.185Z,4.23
2017-09-18T00:53:18.351Z,4.53
2017-09-18T00:55:45.319Z,5.20
2017-09-18T00:58:13.724Z,4.83
2017-09-18T01:00:40.680Z,4.80
2017-09-18T01:03:07.567Z,5.33
2017-09-18T01:05:34.450Z,5.87
2017-09-18T01:08:01.423Z,5.90
2017-09-18T01:10:28.343Z,7.30
2017-09-18T01:12:55.294Z,7.70
2017-09-18T01:15:22.187Z,6.50
2017-09-18T01:17:49.145Z,7.43
2017-09-18T01:20:29.026Z,7.20
2017-09-18T01:25:35.654Z,8.27
2017-09-18T01:28:02.779Z,7.20
2017-09-18T01:30:29.748Z,8.43
2017-09-18T01:32:56.769Z,7.20
2017-09-18T01:35:23.765Z,7.87
2017-09-18T01:37:50.629Z,6.63
2017-09-18T01:40:17.521Z,6.80
2017-09-18T01:42:44.447Z,7.77
2017-09-18T01:45:11.412Z,9.57
2017-09-18T01:47:38.302Z,7.90
2017-09-18T01:50:05.186Z,7.63
2017-09-18T01:52:32.137Z,10.60
2017-09-18T01:54:59.025Z,8.20
2017-09-18T01:57:25.923Z,7.53
2017-09-18T01:59:52.975Z,7.60
2017-09-18T02:02:19.891Z,7.83
2017-09-18T02:04:47.574Z,8.80
2017-09-18T02:07:14.586Z,8.17
2017-09-18T02:09:41.467Z,8.97
2017-09-18T02:12:08.425Z,8.90
2017-09-18T02:14:35.304Z,8.07
2017-09-18T02:17:02.169Z,8.60
2017-09-18T02:19:29.142Z,8.87
2017-09-18T02:21:56.800Z,9.20
2017-09-18T02:24:23.741Z,8.40
2017-09-18T02:26:51.443Z,8.67
2017-09-18T02:29:18.388Z,8.00
2017-09-18T02:31:45.293Z,8.80
2017-09-18T02:34:12.993Z,8.33
2017-09-18T02:36:39.971Z,9.60
2017-09-18T02:41:53.481Z,9.40
2017-09-18T02:44:48.419Z,10.10
2017-09-18T02:47:17.296Z,8.90
2017-09-18T02:49:50.513Z,9.00
2017-09-18T02:52:17.416Z,9.37
2017-09-18T02:54:45.050Z,8.50
2017-09-18T02:57:12.004Z,8.93
2017-09-18T02:59:38.865Z,10.03
2017-09-18T03:02:05.816Z,6.97
2017-09-18T03:04:33.432Z,8.17
2017-09-18T03:07:00.310Z,7.20
2017-09-18T03:09:27.328Z,7.20
2017-09-18T03:11:54.228Z,7.80
2017-09-18T03:14:21.827Z,7.57
2017-09-18T03:16:48.790Z,9.93
2017-09-18T03:19:15.694Z,9.17
2017-09-18T03:21:42.639Z,8.27
2017-09-18T03:24:09.628Z,9.10
2017-09-18T03:26:36.531Z,8.13
2017-09-18T03:29:03.424Z,8.73
2017-09-18T03:31:30.456Z,9.10
2017-09-18T03:33:57.477Z,7.83
2017-09-18T03:36:24.410Z,8.07
2017-09-18T03:38:52.134Z,10.30
2017-09-18T03:41:19.024Z,9.00
2017-09-18T03:43:46.070Z,9.33
2017-09-18T03:46:13.020Z,8.83
2017-09-18T03:48:39.904Z,9.43
2017-09-18T03:51:06.861Z,8.23
2017-09-18T03:53:33.776Z,8.77
2017-09-18T03:56:00.812Z,8.63
2017-09-18T03:58:27.795Z,8.80
2017-09-18T04:00:54.741Z,8.37
2017-09-18T04:03:21.619Z,8.87
2017-09-18T04:05:49.366Z,7.80
2017-09-18T04:08:16.320Z,9.50
2017-09-18T04:10:43.303Z,8.77
2017-09-18T04:13:10.189Z,8.17
2017-09-18T04:15:37.218Z,9.17
2017-09-18T04:18:04.151Z,8.80
2017-09-18T04:20:31.035Z,8.13
2017-09-18T04:23:02.308Z,8.20
2017-09-18T04:25:32.263Z,8.50
2017-09-18T04:27:59.451Z,10.50
2017-09-18T04:30:28.866Z,8.63
2017-09-18T04:32:56.414Z,11.20
2017-09-18T04:35:23.345Z,14.20
2017-09-18T04:37:54.345Z,11.93
2017-09-18T04:40:34.379Z,9.20
2017-09-18T04:43:06.654Z,8.80
2017-09-18T04:45:33.522Z,10.03
2017-09-18T04:48:06.530Z,11.53
2017-09-18T04:50:33.412Z,9.67
2017-09-18T04:53:02.685Z,9.80
2017-09-18T04:55:29.633Z,9.17
2017-09-18T04:57:57.176Z,9.47
2017-09-18T05:00:24.162Z,9.77
2017-09-18T05:02:51.084Z,10.17
2017-09-18T05:05:18.025Z,8.87
2017-09-18T05:07:44.895Z,9.23
2017-09-18T05:10:26.278Z,8.60
2017-09-18T05:12:54.283Z,9.07
2017-09-18T05:15:27.436Z,8.57
2017-09-18T05:17:57.745Z,11.53
2017-09-18T05:20:26.006Z,8.97
2017-09-18T05:22:52.916Z,10.30
2017-09-18T05:25:19.832Z,9.93
2017-09-18T05:27:46.888Z,11.40
2017-09-18T05:30:13.801Z,10.93
2017-09-18T05:32:40.771Z,9.43
2017-09-18T05:35:07.764Z,9.57
2017-09-18T05:37:34.915Z,9.93
2017-09-18T05:40:01.889Z,11.53
2017-09-18T05:42:28.809Z,9.53
2017-09-18T05:44:55.756Z,10.73
2017-09-18T05:47:22.644Z,10.40
2017-09-18T05:49:49.531Z,10.47
2017-09-18T05:52:16.485Z,9.87
2017-09-18T05:54:44.180Z,11.70
2017-09-18T06:00:09.961Z,11.50
2017-09-18T06:02:39.336Z,9.43
2017-09-18T06:05:10.261Z,11.73
2017-09-18T06:07:38.377Z,11.20
2017-09-18T06:10:05.495Z,12.10
2017-09-18T06:12:45.099Z,10.23
2017-09-18T06:18:00.157Z,11.27
2017-09-18T06:20:27.140Z,10.90
2017-09-18T06:22:54.758Z,10.90
2017-09-18T06:25:22.761Z,10.43
2017-09-18T06:27:50.345Z,12.20
2017-09-18T06:30:17.988Z,10.40
2017-09-18T06:32:45.001Z,12.33
2017-09-18T06:35:11.968Z,13.50
2017-09-18T06:37:38.857Z,12.30
2017-09-18T06:40:05.812Z,12.27
2017-09-18T06:42:32.827Z,11.40
2017-09-18T06:45:00.569Z,12.70
2017-09-18T06:47:27.525Z,13.60
2017-09-18T06:49:54.437Z,12.67
2017-09-18T06:52:21.374Z,12.50
2017-09-18T06:54:48.266Z,12.33
2017-09-18T06:57:15.137Z,11.10
2017-09-18T06:59:42.077Z,11.23
2017-09-18T07:02:09.696Z,10.90
2017-09-18T07:04:36.584Z,13.40
2017-09-18T07:07:04.282Z,10.97
2017-09-18T07:09:31.229Z,9.77
2017-09-18T07:11:58.205Z,9.73
2017-09-18T07:14:25.076Z,11.47
2017-09-18T07:16:52.775Z,9.23
2017-09-18T07:19:19.722Z,10.80
2017-09-18T07:21:46.596Z,10.20
2017-09-18T07:24:13.574Z,9.73
2017-09-18T07:26:40.520Z,10.00
2017-09-18T07:29:07.459Z,10.03
2017-09-18T07:31:34.456Z,10.30
2017-09-18T07:34:01.968Z,10.43
2017-09-18T07:36:28.960Z,9.73
2017-09-18T07:38:56.030Z,10.13
2017-09-18T07:41:22.961Z,10.03
2017-09-18T07:43:50.024Z,9.33
2017-09-18T07:46:16.908Z,9.93
2017-09-18T07:48:43.944Z,10.20
2017-09-18T07:51:11.340Z,9.37
2017-09-18T07:53:38.255Z,9.40
2017-09-18T07:58:50.185Z,9.40
2017-09-18T08:01:17.872Z,10.13
2017-09-18T08:03:44.793Z,9.73
2017-09-18T08:06:11.760Z,9.50
2017-09-18T08:08:38.673Z,9.90
2017-09-18T08:13:51.319Z,10.00
2017-09-18T08:16:18.988Z,9.60
2017-09-18T08:18:46.611Z,8.93
2017-09-18T08:21:13.568Z,10.53
2017-09-18T08:23:40.512Z,10.13
2017-09-18T08:26:07.392Z,9.60
2017-09-18T08:28:35.012Z,11.90
2017-09-18T08:31:01.974Z,12.67
2017-09-18T08:33:28.913Z,10.60
2017-09-18T08:35:55.921Z,8.80
2017-09-18T08:38:22.781Z,9.20
2017-09-18T08:40:49.771Z,8.13
2017-09-18T08:43:16.718Z,9.17
2017-09-18T08:45:43.667Z,10.40
2017-09-18T08:48:10.556Z,7.30
2017-09-18T08:50:37.532Z,7.57
2017-09-18T08:53:04.448Z,7.30
2017-09-18T08:55:31.428Z,9.10
2017-09-18T08:57:58.302Z,7.80
2017-09-18T09:00:25.270Z,7.33
2017-09-18T09:02:52.317Z,6.73
2017-09-18T09:05:19.337Z,6.87
2017-09-18T09:07:47.161Z,7.50
2017-09-18T09:10:14.150Z,6.50
2017-09-18T09:12:41.848Z,7.00
2017-09-18T09:15:08.828Z,6.37
2017-09-18T09:17:35.792Z,7.83
2017-09-18T09:20:02.754Z,6.60
2017-09-18T09:22:30.411Z,6.53
2017-09-18T09:24:58.455Z,7.23
2017-09-18T09:27:25.425Z,7.43
2017-09-18T09:29:52.395Z,7.50
2017-09-18T09:32:20.180Z,7.33
2017-09-18T09:34:47.176Z,7.03
2017-09-18T09:37:14.124Z,6.40
2017-09-18T09:39:41.010Z,6.63
2017-09-18T09:42:08.047Z,7.87
2017-09-18T09:44:35.753Z,5.53
2017-09-18T09:47:02.757Z,6.57
2017-09-18T09:49:30.462Z,7.60
2017-09-18T09:51:57.441Z,7.30
2017-09-18T09:54:24.373Z,6.90
2017-09-18T09:56:51.320Z,7.03
2017-09-18T09:59:18.277Z,7.70
2017-09-18T10:01:45.223Z,6.17
2017-09-18T10:04:12.189Z,6.00
2017-09-18T10:06:39.073Z,7.10
2017-09-18T10:09:06.061Z,7.90
2017-09-18T10:11:32.962Z,6.50
2017-09-18T10:13:59.909Z,7.37
2017-09-18T10:16:26.861Z,6.53
2017-09-18T10:18:53.768Z,6.87
2017-09-18T10:21:20.727Z,6.53
2017-09-18T10:23:48.434Z,6.70
2017-09-18T10:26:15.320Z,7.00
2017-09-18T10:28:42.229Z,6.23
2017-09-18T10:31:09.273Z,6.23
2017-09-18T10:33:36.265Z,7.73
2017-09-18T10:36:03.992Z,7.80
2017-09-18T10:38:31.048Z,5.07
2017-09-18T10:40:58.093Z,6.50
2017-09-18T10:43:25.069Z,6.70
2017-09-18T10:45:52.061Z,6.10
2017-09-18T10:48:18.933Z,7.93
2017-09-18T10:50:45.961Z,6.57
2017-09-18T10:53:12.908Z,6.87
2017-09-18T10:55:39.868Z,6.30
2017-09-18T10:58:06.790Z,6.03
2017-09-18T11:00:33.787Z,6.33
2017-09-18T11:03:00.692Z,5.80
2017-09-18T11:05:27.584Z,6.10
2017-09-18T11:07:55.476Z,5.30
2017-09-18T11:10:23.103Z,5.63
2017-09-18T11:12:50.049Z,5.20
2017-09-18T11:15:16.953Z,5.57
2017-09-18T11:17:43.909Z,5.90
2017-09-18T11:20:10.764Z,5.87
2017-09-18T11:22:37.632Z,5.17
2017-09-18T11:25:04.561Z,4.50
2017-09-18T11:27:32.643Z,4.93
2017-09-18T11:29:59.767Z,3.87
2017-09-18T11:32:26.657Z,4.27
2017-09-18T11:34:53.595Z,4.57
2017-09-18T11:37:20.495Z,3.90
2017-09-18T11:39:47.444Z,4.53
2017-09-18T11:42:14.332Z,4.07
2017-09-18T11:44:41.327Z,3.93
2017-09-18T11:47:08.291Z,3.70
2017-09-18T11:49:35.184Z,4.70
2017-09-18T11:52:02.222Z,4.47
2017-09-18T11:54:29.141Z,4.43
2017-09-18T11:56:56.047Z,3.33
2017-09-18T11:59:23.117Z,3.80
2017-09-18T12:01:50.021Z,5.40
2017-09-18T12:04:16.989Z,4.97
2017-09-18T12:06:43.880Z,5.03
2017-09-18T12:09:10.769Z,5.30
2017-09-18T12:11:38.455Z,4.23
2017-09-18T12:14:05.333Z,5.57
2017-09-18T12:16:32.273Z,4.63
2017-09-18T12:18:59.236Z,5.47
2017-09-18T12:21:26.127Z,6.20
2017-09-18T12:23:53.086Z,4.37
2017-09-18T12:26:20.515Z,5.37
2017-09-18T12:28:47.504Z,4.47
2017-09-18T12:31:16.248Z,4.10
2017-09-18T12:33:45.482Z,4.10
2017-09-18T12:36:13.885Z,3.50
2017-09-18T12:38:42.628Z,3.80
2017-09-18T12:41:09.761Z,3.83
2017-09-18T12:43:38.282Z,2.50
2017-09-18T12:46:07.558Z,2.40
2017-09-18T12:48:35.154Z,2.33
2017-09-18T12:51:02.023Z,3.40
2017-09-18T12:53:28.986Z,3.97
2017-09-18T12:55:55.865Z,8.77
2017-09-18T12:58:22.757Z,2.53
2017-09-18T13:00:52.480Z,4.23
2017-09-18T13:03:20.755Z,3.10
2017-09-18T13:05:51.223Z,3.17
2017-09-18T13:08:18.252Z,2.53
2017-09-18T13:10:45.203Z,2.57
2017-09-18T13:13:12.914Z,3.17
2017-09-18T13:15:39.797Z,5.30
2017-09-18T13:18:06.667Z,3.90
2017-09-18T13:20:34.478Z,3.37
2017-09-18T13:23:02.812Z,3.30
2017-09-18T13:25:29.864Z,6.80
2017-09-18T13:27:57.464Z,3.57
2017-09-18T13:30:24.395Z,3.13
2017-09-18T13:32:51.417Z,3.63
2017-09-18T13:35:20.724Z,2.80
2017-09-18T13:37:47.790Z,3.03
2017-09-18T13:40:14.712Z,4.00
2017-09-18T13:42:42.337Z,4.60
2017-09-18T13:45:11.096Z,3.73
2017-09-18T13:47:37.989Z,4.60
2017-09-18T13:50:08.909Z,3.97
2017-09-18T13:52:35.923Z,3.57
2017-09-18T13:55:13.943Z,3.10
2017-09-18T13:57:43.970Z,2.73
2017-09-18T14:00:13.536Z,3.33
2017-09-18T14:02:41.260Z,3.40
2017-09-18T14:05:11.504Z,3.77
2017-09-18T14:07:38.453Z,3.40
2017-09-18T14:10:05.421Z,3.07
2017-09-18T14:12:33.105Z,3.60
2017-09-18T14:15:00.073Z,3.80
2017-09-18T14:17:32.597Z,3.70
2017-09-18T14:19:59.835Z,3.77
2017-09-18T14:22:29.010Z,3.77
2017-09-18T14:24:56.108Z,3.30
2017-09-18T14:27:23.885Z,3.97
2017-09-18T14:29:50.836Z,3.50
2017-09-18T14:32:18.742Z,3.30
2017-09-18T14:34:46.089Z,4.10
2017-09-18T14:37:13.069Z,4.00
2017-09-18T14:39:40.796Z,3.63
2017-09-18T14:42:07.812Z,3.90
2017-09-18T14:44:36.130Z,4.40
2017-09-18T14:47:05.664Z,3.67
2017-09-18T14:49:32.572Z,3.20
2017-09-18T14:52:02.405Z,3.60
2017-09-18T14:54:41.766Z,2.73
2017-09-18T14:57:10.463Z,3.43
2017-09-18T14:59:38.321Z,3.57
2017-09-18T15:02:06.143Z,3.20
2017-09-18T15:04:33.042Z,2.83
2017-09-18T15:07:00.682Z,2.50
2017-09-18T15:09:27.684Z,3.77
2017-09-18T15:11:54.584Z,3.27
2017-09-18T15:14:21.549Z,2.20
2017-09-18T15:16:49.186Z,3.07
2017-09-18T15:19:16.172Z,2.70
2017-09-18T15:21:43.083Z,3.13
2017-09-18T15:24:10.036Z,2.83
2017-09-18T15:26:36.945Z,3.47
2017-09-18T15:29:03.857Z,2.70
2017-09-18T15:31:30.789Z,3.27
2017-09-18T15:33:58.412Z,3.17
2017-09-18T15:36:25.440Z,3.30
2017-09-18T15:38:52.397Z,7.73
2017-09-18T15:41:19.943Z,3.30
2017-09-18T15:43:47.441Z,3.20
2017-09-18T15:46:14.367Z,2.80
2017-09-18T15:48:41.345Z,3.63
2017-09-18T15:51:08.216Z,2.80
2017-09-18T15:53:38.573Z,2.40
2017-09-18T15:56:10.722Z,1.83
2017-09-18T15:58:39.700Z,2.57
2017-09-18T16:01:10.262Z,1.80
2017-09-18T16:03:43.543Z,1.80
2017-09-18T16:06:15.528Z,2.20
2017-09-18T16:08:43.838Z,1.80
2017-09-18T16:11:12.280Z,3.30
2017-09-18T16:13:46.062Z,2.00
2017-09-18T16:16:15.440Z,1.90
2017-09-18T16:18:46.396Z,3.63
2017-09-18T16:21:17.441Z,1.77
2017-09-18T16:23:45.115Z,2.07
2017-09-18T16:26:12.845Z,2.10
2017-09-18T16:28:46.586Z,1.77
2017-09-18T16:31:20.022Z,1.90
2017-09-18T16:33:49.452Z,1.60
2017-09-18T16:36:23.373Z,2.23
2017-09-18T16:41:40.453Z,2.10
2017-09-18T16:44:12.186Z,2.20
2017-09-18T16:46:39.072Z,2.20
2017-09-18T16:49:07.408Z,2.10
2017-09-18T16:51:37.091Z,1.80
2017-09-18T16:54:04.449Z,1.83
2017-09-18T16:56:31.408Z,3.40
2017-09-18T16:58:59.130Z,2.27
2017-09-18T17:01:26.061Z,2.40
2017-09-18T17:03:52.934Z,2.07
2017-09-18T17:06:34.651Z,2.13
2017-09-18T17:09:15.206Z,3.73
2017-09-18T17:11:42.812Z,4.57
2017-09-18T17:14:09.692Z,2.20
2017-09-18T17:16:36.581Z,4.53
2017-09-18T17:19:03.549Z,2.83
2017-09-18T17:21:30.424Z,2.30
2017-09-18T17:24:11.737Z,2.77
2017-09-18T17:26:38.791Z,2.70
2017-09-18T17:29:06.495Z,2.90
2017-09-18T17:31:33.570Z,3.00
2017-09-18T17:34:00.472Z,2.40
2017-09-18T17:36:29.477Z,3.30
2017-09-18T17:38:58.565Z,4.63
2017-09-18T17:41:25.520Z,3.10
2017-09-18T17:43:54.641Z,3.13
2017-09-18T17:46:22.531Z,3.10
2017-09-18T17:48:53.082Z,3.70
2017-09-18T17:51:20.988Z,4.37
2017-09-18T17:53:47.913Z,4.10
2017-09-18T17:56:17.823Z,4.50
2017-09-18T17:58:45.045Z,4.73
2017-09-18T18:01:11.937Z,3.23
2017-09-18T18:03:38.925Z,2.90
2017-09-18T18:06:05.833Z,3.40
2017-09-18T18:08:32.752Z,3.40
2017-09-18T18:10:59.738Z,3.70
2017-09-18T18:13:26.678Z,3.03
2017-09-18T18:15:53.629Z,2.93
2017-09-18T18:18:20.524Z,3.10
2017-09-18T18:20:47.440Z,3.50
2017-09-18T18:23:14.405Z,3.53
2017-09-18T18:25:41.361Z,4.20
2017-09-18T18:28:08.252Z,6.60
2017-09-18T18:30:35.256Z,6.03
2017-09-18T18:33:04.212Z,4.63
2017-09-18T18:35:31.204Z,3.50
2017-09-18T18:37:58.937Z,3.70
2017-09-18T18:40:25.949Z,4.80
2017-09-18T18:42:52.932Z,7.40
2017-09-18T18:45:19.828Z,5.67
2017-09-18T18:47:46.802Z,3.50
2017-09-18T18:50:13.731Z,4.40
2017-09-18T18:52:40.636Z,4.03
2017-09-18T18:55:07.661Z,4.80
2017-09-18T18:57:34.781Z,3.90
2017-09-18T19:00:01.827Z,4.80
2017-09-18T19:02:28.834Z,5.93
2017-09-18T19:04:55.778Z,4.70
2017-09-18T19:07:22.824Z,5.00
2017-09-18T19:09:50.546Z,3.70
2017-09-18T19:12:17.684Z,4.50
2017-09-18T19:14:44.578Z,6.20
2017-09-18T19:17:11.544Z,4.23
2017-09-18T19:19:38.448Z,4.30
2017-09-18T19:22:05.480Z,5.13
2017-09-18T19:24:32.388Z,4.27
2017-09-18T19:26:59.372Z,4.03
2017-09-18T19:29:26.471Z,4.73
2017-09-18T19:31:53.377Z,3.97
2017-09-18T19:34:20.400Z,4.80
2017-09-18T19:36:58.496Z,3.47
2017-09-18T19:39:38.935Z,4.10
2017-09-18T19:42:06.910Z,4.10
2017-09-18T19:44:35.033Z,6.10
2017-09-18T19:47:02.014Z,4.33
2017-09-18T19:49:28.960Z,3.93
2017-09-18T19:51:55.950Z,3.40
2017-09-18T19:54:22.845Z,4.07
2017-09-18T19:57:07.641Z,4.10
2017-09-18T19:59:34.839Z,4.07
2017-09-18T20:02:01.750Z,6.47
2017-09-18T20:04:28.698Z,4.03
2017-09-18T20:06:55.721Z,4.33
2017-09-18T20:09:22.709Z,3.73
2017-09-18T20:11:49.704Z,5.60
2017-09-18T20:14:16.684Z,4.20
2017-09-18T20:16:43.629Z,3.30
2017-09-18T20:19:10.595Z,8.33
2017-09-18T20:21:37.522Z,3.73
2017-09-18T20:24:05.119Z,3.83
2017-09-18T20:26:33.271Z,3.53
2017-09-18T20:29:00.196Z,4.87
2017-09-18T20:31:28.267Z,3.70
2017-09-18T20:33:55.630Z,3.43
2017-09-18T20:36:23.419Z,3.83
2017-09-18T20:38:50.468Z,3.83
2017-09-18T20:41:17.417Z,3.77
2017-09-18T20:43:44.455Z,3.87
2017-09-18T20:46:13.863Z,3.73
2017-09-18T20:48:40.861Z,4.17
2017-09-18T20:51:07.868Z,4.87
2017-09-18T20:53:34.876Z,3.63
2017-09-18T20:56:01.800Z,3.83
2017-09-18T20:58:28.717Z,4.50
2017-09-18T21:00:55.734Z,4.93
2017-09-18T21:03:22.717Z,3.73
2017-09-18T21:06:04.266Z,7.40
2017-09-18T21:08:31.754Z,3.47
2017-09-18T21:11:14.031Z,7.93
2017-09-18T21:13:43.014Z,3.70
2017-09-18T21:16:18.677Z,4.93
2017-09-18T21:18:58.910Z,3.80
2017-09-18T21:21:26.744Z,4.40
2017-09-18T21:23:56.586Z,4.07
2017-09-18T21:26:25.429Z,3.37
2017-09-18T21:29:06.599Z,3.20
2017-09-18T21:31:39.907Z,2.83
2017-09-18T21:34:17.792Z,5.70
2017-09-18T21:36:45.643Z,4.43
2017-09-18T21:39:14.124Z,3.90
2017-09-18T21:41:42.265Z,3.30
2017-09-18T21:44:11.228Z,3.40
2017-09-18T21:46:38.274Z,3.93
2017-09-18T21:49:05.224Z,5.20
2017-09-18T21:51:32.157Z,3.80
2017-09-18T21:54:01.275Z,3.37
2017-09-18T21:56:28.158Z,3.70
2017-09-18T21:58:55.101Z,3.43
2017-09-18T22:01:22.012Z,3.20
2017-09-18T22:03:49.031Z,3.87
2017-09-18T22:06:16.741Z,3.30
2017-09-18T22:08:43.658Z,2.90
2017-09-18T22:11:10.593Z,4.80
2017-09-18T22:13:37.569Z,3.93
2017-09-18T22:16:04.521Z,3.70
2017-09-18T22:18:31.400Z,5.10
2017-09-18T22:20:58.390Z,5.27
2017-09-18T22:23:25.354Z,4.43
2017-09-18T22:25:52.356Z,4.10
2017-09-18T22:28:19.242Z,3.57
2017-09-18T22:30:46.259Z,4.17
2017-09-18T22:33:13.246Z,4.03
2017-09-18T22:35:40.248Z,4.43
2017-09-18T22:38:07.216Z,4.17
2017-09-18T22:40:34.128Z,4.30
2017-09-18T22:43:01.123Z,4.83
2017-09-18T22:45:28.069Z,5.73
2017-09-18T22:47:55.062Z,3.90
2017-09-18T22:50:22.080Z,4.07
2017-09-18T22:52:48.997Z,3.60
2017-09-18T22:55:16.000Z,4.37
2017-09-18T22:57:42.888Z,3.60
2017-09-18T23:00:09.942Z,3.93
2017-09-18T23:02:36.939Z,4.37
2017-09-18T23:05:03.888Z,5.23
2017-09-18T23:07:30.885Z,4.33
2017-09-18T23:09:57.823Z,4.70
2017-09-18T23:12:24.813Z,3.90
2017-09-18T23:14:51.708Z,3.87
2017-09-18T23:17:18.697Z,4.40
2017-09-18T23:19:45.668Z,5.23
2017-09-18T23:22:12.580Z,5.10
2017-09-18T23:24:39.531Z,4.53
2017-09-18T23:27:06.422Z,4.20
2017-09-18T23:29:33.345Z,4.70
2017-09-18T23:32:00.366Z,3.73
2017-09-18T23:34:27.277Z,3.73
2017-09-18T23:36:54.179Z,4.27
2017-09-18T23:39:21.146Z,4.97
2017-09-18T23:41:48.036Z,4.30
2017-09-18T23:44:15.020Z,4.70
2017-09-18T23:46:42.030Z,4.80
2017-09-18T23:49:09.016Z,4.50
2017-09-18T23:51:35.995Z,6.50
2017-09-18T23:54:02.953Z,5.13
2017-09-18T23:56:29.842Z,4.67
2017-09-18T23:58:56.818Z,4.37
